ヤクーツク の空港の天気 - METARとTAF

ヤクーツク空港 ( UEEE / YKS ) - ロシア ヤクーツク
飛行場実況気象(Metar)
観測時間02/18 07:30 YAKT (02/17 22:30 UTC)
風向・風速西北西 2m/s
視程10km以上
天気現象
なし
気温-37℃
湿度66%
気圧1009hPa
METARUEEE 172230Z 30002MPS CAVOK M37/M41 Q1009 R23L/490145 NOSIG RMK QFE748
過去の天気等 Google飛行場航空写真 Wunderground天気予報

過去48時間のMETAR

飛行場予報(TAF)
発表時間: 2/18 05:00 YAKT (2/17 20:00 UTC)
予報対象時間: 18日6時 YAKT ~ 19日12時 YAKT
風向・風速不定 1m/s
視程10km以上
なし
18日6時 YAKT ~ 18日12時 YAKT に一時的に
視程300m
天気現象弱い雪 霧
全天を覆う雲 鉛直視程 90m
TAF UEEE 172000Z 1721/1903 VRB01MPS CAVOK
TEMPO 1721/1803 0300 -SN FG VV003